sensor_id;sensor_type;location;lat;lon;timestamp;pressure;altitude;pressure_sealevel;temperature;humidity
76594;BME280;65482;50.240;14.302;2024-02-15T00:00:52;100043.72;;;8.74;69.75
76594;BME280;65482;50.240;14.302;2024-02-15T00:03:36;100040.41;;;8.72;70.35
76594;BME280;65482;50.240;14.302;2024-02-15T00:06:01;100045.78;;;8.70;70.55
76594;BME280;65482;50.240;14.302;2024-02-15T00:08:29;100044.66;;;8.73;70.64
76594;BME280;65482;50.240;14.302;2024-02-15T00:10:55;100048.84;;;8.75;70.94
76594;BME280;65482;50.240;14.302;2024-02-15T00:13:21;100048.41;;;8.70;71.13
76594;BME280;65482;50.240;14.302;2024-02-15T00:15:48;100047.84;;;8.67;71.33
76594;BME280;65482;50.240;14.302;2024-02-15T00:18:14;100047.84;;;8.67;71.87
76594;BME280;65482;50.240;14.302;2024-02-15T00:20:40;100042.72;;;8.65;72.03
76594;BME280;65482;50.240;14.302;2024-02-15T00:23:06;100049.53;;;8.68;72.24
76594;BME280;65482;50.240;14.302;2024-02-15T00:25:32;100042.88;;;8.64;72.31
76594;BME280;65482;50.240;14.302;2024-02-15T00:27:58;100048.66;;;8.67;72.37
76594;BME280;65482;50.240;14.302;2024-02-15T00:30:27;100044.81;;;8.62;72.54
76594;BME280;65482;50.240;14.302;2024-02-15T00:32:53;100031.22;;;8.56;72.70
76594;BME280;65482;50.240;14.302;2024-02-15T00:35:19;100035.09;;;8.62;72.76
76594;BME280;65482;50.240;14.302;2024-02-15T00:37:45;100026.41;;;8.62;72.95
76594;BME280;65482;50.240;14.302;2024-02-15T00:40:10;100030.97;;;8.60;73.19
76594;BME280;65482;50.240;14.302;2024-02-15T00:42:37;100023.31;;;8.56;73.26
76594;BME280;65482;50.240;14.302;2024-02-15T00:45:05;100024.44;;;8.54;73.45
76594;BME280;65482;50.240;14.302;2024-02-15T00:47:31;100021.81;;;8.54;74.12
76594;BME280;65482;50.240;14.302;2024-02-15T00:49:58;100023.75;;;8.52;73.97
76594;BME280;65482;50.240;14.302;2024-02-15T00:52:24;100024.81;;;8.49;74.43
76594;BME280;65482;50.240;14.302;2024-02-15T00:54:50;100025.94;;;8.47;74.52
76594;BME280;65482;50.240;14.302;2024-02-15T00:57:16;100030.63;;;8.43;74.41
76594;BME280;65482;50.240;14.302;2024-02-15T00:59:42;100026.22;;;8.44;74.62
76594;BME280;65482;50.240;14.302;2024-02-15T01:02:07;100027.16;;;8.43;74.84
76594;BME280;65482;50.240;14.302;2024-02-15T01:04:34;100022.16;;;8.40;74.84
76594;BME280;65482;50.240;14.302;2024-02-15T01:07:00;100020.19;;;8.32;75.17
76594;BME280;65482;50.240;14.302;2024-02-15T01:09:25;100014.38;;;8.28;75.32
76594;BME280;65482;50.240;14.302;2024-02-15T01:11:51;100017.66;;;8.21;75.47
76594;BME280;65482;50.240;14.302;2024-02-15T01:14:17;100020.97;;;8.23;75.23
76594;BME280;65482;50.240;14.302;2024-02-15T01:16:42;100015.03;;;8.21;75.86
76594;BME280;65482;50.240;14.302;2024-02-15T01:19:09;100019.34;;;8.22;75.52
76594;BME280;65482;50.240;14.302;2024-02-15T01:21:35;100016.13;;;8.18;75.78
76594;BME280;65482;50.240;14.302;2024-02-15T01:24:02;100007.97;;;8.21;75.98
76594;BME280;65482;50.240;14.302;2024-02-15T01:26:29;100006.56;;;8.17;76.04
76594;BME280;65482;50.240;14.302;2024-02-15T01:28:57;100008.50;;;8.15;76.45
76594;BME280;65482;50.240;14.302;2024-02-15T01:31:23;100009.47;;;8.14;76.20
76594;BME280;65482;50.240;14.302;2024-02-15T01:33:48;100000.75;;;8.13;76.36
76594;BME280;65482;50.240;14.302;2024-02-15T01:36:15;99991.09;;;8.14;76.08
76594;BME280;65482;50.240;14.302;2024-02-15T01:38:41;99993.84;;;8.12;76.39
76594;BME280;65482;50.240;14.302;2024-02-15T01:41:08;99988.72;;;8.11;76.26
76594;BME280;65482;50.240;14.302;2024-02-15T01:43:34;99988.31;;;8.06;76.50
76594;BME280;65482;50.240;14.302;2024-02-15T01:46:00;99992.81;;;8.04;76.34
76594;BME280;65482;50.240;14.302;2024-02-15T01:48:31;99986.63;;;8.05;76.49
76594;BME280;65482;50.240;14.302;2024-02-15T01:50:58;99990.47;;;8.01;76.61
76594;BME280;65482;50.240;14.302;2024-02-15T01:53:24;99982.84;;;7.97;76.56
76594;BME280;65482;50.240;14.302;2024-02-15T01:55:52;99979.41;;;7.97;76.76
76594;BME280;65482;50.240;14.302;2024-02-15T01:58:19;99978.69;;;7.95;77.09
76594;BME280;65482;50.240;14.302;2024-02-15T02:00:45;99976.06;;;7.95;77.01
76594;BME280;65482;50.240;14.302;2024-02-15T02:03:13;99975.25;;;7.94;76.75
76594;BME280;65482;50.240;14.302;2024-02-15T02:05:41;99973.56;;;7.93;76.49
76594;BME280;65482;50.240;14.302;2024-02-15T02:08:06;99978.97;;;7.92;76.55
76594;BME280;65482;50.240;14.302;2024-02-15T02:10:37;99972.16;;;7.89;76.91
76594;BME280;65482;50.240;14.302;2024-02-15T02:13:02;99977.56;;;7.88;76.97
76594;BME280;65482;50.240;14.302;2024-02-15T02:15:28;99970.66;;;7.87;77.06
76594;BME280;65482;50.240;14.302;2024-02-15T02:17:57;99973.28;;;7.87;77.08
76594;BME280;65482;50.240;14.302;2024-02-15T02:20:27;99968.16;;;7.85;77.00
76594;BME280;65482;50.240;14.302;2024-02-15T02:22:54;99973.53;;;7.84;77.05
76594;BME280;65482;50.240;14.302;2024-02-15T02:25:25;99972.69;;;7.83;77.05
76594;BME280;65482;50.240;14.302;2024-02-15T02:27:54;99975.06;;;7.86;76.76
76594;BME280;65482;50.240;14.302;2024-02-15T02:30:21;99977.81;;;7.85;76.84
76594;BME280;65482;50.240;14.302;2024-02-15T02:32:48;99979.47;;;7.86;77.19
76594;BME280;65482;50.240;14.302;2024-02-15T02:35:14;99977.56;;;7.88;76.90
76594;BME280;65482;50.240;14.302;2024-02-15T02:37:41;99981.84;;;7.89;76.79
76594;BME280;65482;50.240;14.302;2024-02-15T02:40:08;99987.81;;;7.91;76.93
76594;BME280;65482;50.240;14.302;2024-02-15T02:45:17;99983.94;;;7.95;77.13
76594;BME280;65482;50.240;14.302;2024-02-15T02:47:45;99988.38;;;7.94;77.34
76594;BME280;65482;50.240;14.302;2024-02-15T02:50:13;99978.13;;;7.91;77.41
76594;BME280;65482;50.240;14.302;2024-02-15T02:52:39;99985.75;;;7.94;77.77
76594;BME280;65482;50.240;14.302;2024-02-15T02:55:05;99984.78;;;7.95;77.84
76594;BME280;65482;50.240;14.302;2024-02-15T02:57:37;99984.41;;;8.00;77.68
76594;BME280;65482;50.240;14.302;2024-02-15T03:00:07;99980.38;;;7.96;77.80
76594;BME280;65482;50.240;14.302;2024-02-15T03:02:36;99982.03;;;7.97;78.09
76594;BME280;65482;50.240;14.302;2024-02-15T03:05:03;99983.69;;;7.98;78.20
76594;BME280;65482;50.240;14.302;2024-02-15T03:07:32;99986.56;;;7.95;77.80
76594;BME280;65482;50.240;14.302;2024-02-15T03:09:58;99981.91;;;7.99;77.91
76594;BME280;65482;50.240;14.302;2024-02-15T03:12:23;99987.56;;;7.94;77.80
76594;BME280;65482;50.240;14.302;2024-02-15T03:14:50;99988.09;;;7.97;77.48
76594;BME280;65482;50.240;14.302;2024-02-15T03:17:15;99987.84;;;8.01;77.53
76594;BME280;65482;50.240;14.302;2024-02-15T03:19:41;99984.81;;;8.05;77.47
76594;BME280;65482;50.240;14.302;2024-02-15T03:22:07;99980.78;;;8.01;77.64
76594;BME280;65482;50.240;14.302;2024-02-15T03:24:32;99979.41;;;7.97;78.20
76594;BME280;65482;50.240;14.302;2024-02-15T03:26:58;99984.34;;;7.90;78.55
76594;BME280;65482;50.240;14.302;2024-02-15T03:29:23;99987.41;;;7.95;78.76
76594;BME280;65482;50.240;14.302;2024-02-15T03:31:50;99985.06;;;7.92;78.98
76594;BME280;65482;50.240;14.302;2024-02-15T03:34:18;99990.31;;;7.92;79.07
76594;BME280;65482;50.240;14.302;2024-02-15T03:36:47;99993.88;;;7.91;79.19
76594;BME280;65482;50.240;14.302;2024-02-15T03:39:17;99994.34;;;7.96;79.02
76594;BME280;65482;50.240;14.302;2024-02-15T03:41:42;99994.75;;;8.02;78.91
76594;BME280;65482;50.240;14.302;2024-02-15T03:44:13;99997.94;;;8.05;78.90
76594;BME280;65482;50.240;14.302;2024-02-15T03:46:40;99992.00;;;8.03;78.75
76594;BME280;65482;50.240;14.302;2024-02-15T03:49:06;99982.47;;;8.02;78.50
76594;BME280;65482;50.240;14.302;2024-02-15T03:51:34;99981.25;;;8.06;78.14
76594;BME280;65482;50.240;14.302;2024-02-15T03:54:00;99980.78;;;8.01;78.15
76594;BME280;65482;50.240;14.302;2024-02-15T03:56:25;99991.44;;;8.00;78.27
76594;BME280;65482;50.240;14.302;2024-02-15T03:58:51;99985.47;;;7.97;78.62
76594;BME280;65482;50.240;14.302;2024-02-15T04:01:17;99984.66;;;7.97;78.54
76594;BME280;65482;50.240;14.302;2024-02-15T04:03:43;99992.22;;;7.90;78.50
76594;BME280;65482;50.240;14.302;2024-02-15T04:06:08;99991.53;;;7.88;78.56
76594;BME280;65482;50.240;14.302;2024-02-15T04:08:36;99995.00;;;7.89;78.89
76594;BME280;65482;50.240;14.302;2024-02-15T04:11:05;99998.06;;;7.94;78.20
76594;BME280;65482;50.240;14.302;2024-02-15T04:13:33;99989.72;;;7.89;78.25
76594;BME280;65482;50.240;14.302;2024-02-15T04:15:59;99990.84;;;7.86;78.59
76594;BME280;65482;50.240;14.302;2024-02-15T04:18:25;99981.94;;;7.77;78.56
76594;BME280;65482;50.240;14.302;2024-02-15T04:20:50;99981.50;;;7.72;78.63
76594;BME280;65482;50.240;14.302;2024-02-15T04:23:19;99984.84;;;7.74;79.11
76594;BME280;65482;50.240;14.302;2024-02-15T04:25:46;99986.34;;;7.77;79.52
76594;BME280;65482;50.240;14.302;2024-02-15T04:28:16;99989.97;;;7.76;79.30
76594;BME280;65482;50.240;14.302;2024-02-15T04:30:41;99989.97;;;7.76;79.42
76594;BME280;65482;50.240;14.302;2024-02-15T04:33:07;99991.22;;;7.82;79.15
76594;BME280;65482;50.240;14.302;2024-02-15T04:35:33;99988.59;;;7.82;78.71
76594;BME280;65482;50.240;14.302;2024-02-15T04:37:59;99991.22;;;7.82;78.91
76594;BME280;65482;50.240;14.302;2024-02-15T04:40:25;99989.28;;;7.84;78.98
76594;BME280;65482;50.240;14.302;2024-02-15T04:42:51;99992.88;;;7.83;79.32
76594;BME280;65482;50.240;14.302;2024-02-15T04:45:17;99993.59;;;7.85;79.50
76594;BME280;65482;50.240;14.302;2024-02-15T04:47:44;100002.88;;;7.89;79.02
76594;BME280;65482;50.240;14.302;2024-02-15T04:50:16;100003.31;;;7.94;79.14
76594;BME280;65482;50.240;14.302;2024-02-15T04:52:43;100004.16;;;7.94;78.90
76594;BME280;65482;50.240;14.302;2024-02-15T04:55:11;99996.97;;;7.96;79.32
76594;BME280;65482;50.240;14.302;2024-02-15T04:57:37;99993.22;;;7.99;78.97
76594;BME280;65482;50.240;14.302;2024-02-15T05:00:03;99995.72;;;8.01;78.97
76594;BME280;65482;50.240;14.302;2024-02-15T05:02:35;99990.47;;;8.01;78.82
76594;BME280;65482;50.240;14.302;2024-02-15T05:05:06;99994.63;;;8.03;78.75
76594;BME280;65482;50.240;14.302;2024-02-15T05:07:34;99993.22;;;7.99;78.79
76594;BME280;65482;50.240;14.302;2024-02-15T05:10:03;99991.88;;;8.05;78.68
76594;BME280;65482;50.240;14.302;2024-02-15T05:12:32;99994.63;;;8.03;78.39
76594;BME280;65482;50.240;14.302;2024-02-15T05:14:59;99994.38;;;8.06;78.47
76594;BME280;65482;50.240;14.302;2024-02-15T05:17:25;99990.94;;;8.06;78.36
76594;BME280;65482;50.240;14.302;2024-02-15T05:19:50;99984.69;;;8.07;78.30
76594;BME280;65482;50.240;14.302;2024-02-15T05:22:16;99988.03;;;8.09;78.20
76594;BME280;65482;50.240;14.302;2024-02-15T05:24:42;99995.06;;;8.08;78.14
76594;BME280;65482;50.240;14.302;2024-02-15T05:27:07;100001.31;;;8.17;78.19
76594;BME280;65482;50.240;14.302;2024-02-15T05:29:33;99998.41;;;8.10;78.43
76594;BME280;65482;50.240;14.302;2024-02-15T05:32:02;100005.47;;;8.10;78.38
76594;BME280;65482;50.240;14.302;2024-02-15T05:34:28;100008.78;;;8.12;78.44
76594;BME280;65482;50.240;14.302;2024-02-15T05:36:55;100011.25;;;8.13;78.27
76594;BME280;65482;50.240;14.302;2024-02-15T05:39:21;100011.25;;;8.13;78.30
76594;BME280;65482;50.240;14.302;2024-02-15T05:41:47;100015.13;;;8.09;78.36
76594;BME280;65482;50.240;14.302;2024-02-15T05:44:14;100014.28;;;8.09;78.57
76594;BME280;65482;50.240;14.302;2024-02-15T05:47:00;100015.72;;;8.23;78.28
76594;BME280;65482;50.240;14.302;2024-02-15T05:49:26;100016.25;;;8.16;78.52
76594;BME280;65482;50.240;14.302;2024-02-15T05:51:53;100009.91;;;8.19;78.47
76594;BME280;65482;50.240;14.302;2024-02-15T05:54:28;100012.66;;;8.17;78.46
76594;BME280;65482;50.240;14.302;2024-02-15T05:56:53;100016.13;;;8.18;78.49
76594;BME280;65482;50.240;14.302;2024-02-15T05:59:21;100015.16;;;8.19;78.05
76594;BME280;65482;50.240;14.302;2024-02-15T06:01:47;100019.34;;;8.22;78.28
76594;BME280;65482;50.240;14.302;2024-02-15T06:04:15;100025.53;;;8.21;78.28
76594;BME280;65482;50.240;14.302;2024-02-15T06:06:42;100024.72;;;8.20;78.54
76594;BME280;65482;50.240;14.302;2024-02-15T06:09:09;100024.59;;;8.22;78.73
76594;BME280;65482;50.240;14.302;2024-02-15T06:11:36;100025.66;;;8.19;78.74
76594;BME280;65482;50.240;14.302;2024-02-15T06:17:15;100023.31;;;8.16;78.31
76594;BME280;65482;50.240;14.302;2024-02-15T06:19:43;100035.47;;;8.17;78.11
76594;BME280;65482;50.240;14.302;2024-02-15T06:22:13;100026.06;;;8.14;78.58
76594;BME280;65482;50.240;14.302;2024-02-15T06:24:54;100037.28;;;8.16;78.82
76594;BME280;65482;50.240;14.302;2024-02-15T06:27:21;100037.28;;;8.16;79.25
76594;BME280;65482;50.240;14.302;2024-02-15T06:29:53;100036.31;;;8.17;78.80
76594;BME280;65482;50.240;14.302;2024-02-15T06:32:53;100041.19;;;8.22;79.16
76594;BME280;65482;50.240;14.302;2024-02-15T06:35:44;100044.50;;;8.24;79.19
76594;BME280;65482;50.240;14.302;2024-02-15T06:42:51;100042.47;;;8.28;78.89
76594;BME280;65482;50.240;14.302;2024-02-15T06:53:15;100045.78;;;8.30;79.25
76594;BME280;65482;50.240;14.302;2024-02-15T07:06:28;100049.47;;;8.48;79.66
76594;BME280;65482;50.240;14.302;2024-02-15T07:10:01;100054.09;;;8.66;79.25
76594;BME280;65482;50.240;14.302;2024-02-15T07:25:12;100059.81;;;8.90;78.23
76594;BME280;65482;50.240;14.302;2024-02-15T07:28:40;100058.66;;;8.83;78.55
76594;BME280;65482;50.240;14.302;2024-02-15T07:31:50;100060.75;;;8.80;78.50
76594;BME280;65482;50.240;14.302;2024-02-15T07:35:28;100061.19;;;8.94;77.55
76594;BME280;65482;50.240;14.302;2024-02-15T07:55:22;100055.28;;;9.98;75.29
76594;BME280;65482;50.240;14.302;2024-02-15T08:02:22;100045.59;;;10.26;74.54
76594;BME280;65482;50.240;14.302;2024-02-15T08:04:59;100043.19;;;10.52;73.31
76594;BME280;65482;50.240;14.302;2024-02-15T08:13:13;100033.38;;;11.08;72.15
76594;BME280;65482;50.240;14.302;2024-02-15T08:34:46;100034.59;;;13.20;67.64
76594;BME280;65482;50.240;14.302;2024-02-15T08:37:39;100035.94;;;13.41;67.22
76594;BME280;65482;50.240;14.302;2024-02-15T09:52:30;100059.16;;;14.27;62.06
76594;BME280;65482;50.240;14.302;2024-02-15T09:56:01;100066.47;;;14.25;62.75
76594;BME280;65482;50.240;14.302;2024-02-15T09:58:51;100056.69;;;14.26;62.51
76594;BME280;65482;50.240;14.302;2024-02-15T10:01:25;100058.84;;;14.30;62.36
76594;BME280;65482;50.240;14.302;2024-02-15T10:04:21;100055.03;;;14.25;62.31
76594;BME280;65482;50.240;14.302;2024-02-15T10:07:44;100046.81;;;14.03;62.48
76594;BME280;65482;50.240;14.302;2024-02-15T10:11:10;100051.94;;;14.13;62.93
76594;BME280;65482;50.240;14.302;2024-02-15T10:13:39;100045.75;;;14.29;62.48
76594;BME280;65482;50.240;14.302;2024-02-15T10:16:19;100036.41;;;14.41;62.44
76594;BME280;65482;50.240;14.302;2024-02-15T10:18:51;100036.84;;;14.61;61.89
76594;BME280;65482;50.240;14.302;2024-02-15T10:22:05;100033.44;;;14.76;61.00
76594;BME280;65482;50.240;14.302;2024-02-15T10:25:14;100035.75;;;15.02;60.75
76594;BME280;65482;50.240;14.302;2024-02-15T10:35:21;100031.03;;;15.35;59.02
76594;BME280;65482;50.240;14.302;2024-02-15T10:38:12;100027.88;;;15.31;59.00
76594;BME280;65482;50.240;14.302;2024-02-15T10:41:08;100022.94;;;15.28;58.88
76594;BME280;65482;50.240;14.302;2024-02-15T11:52:30;99962.66;;;15.29;57.27
76594;BME280;65482;50.240;14.302;2024-02-15T13:29:23;99914.22;;;15.86;52.24
76594;BME280;65482;50.240;14.302;2024-02-15T13:38:17;99921.50;;;15.69;53.15
76594;BME280;65482;50.240;14.302;2024-02-15T13:41:13;99922.00;;;15.73;52.55
76594;BME280;65482;50.240;14.302;2024-02-15T13:44:07;99916.56;;;15.51;52.42
76594;BME280;65482;50.240;14.302;2024-02-15T13:47:03;99913.00;;;15.44;53.20
76594;BME280;65482;50.240;14.302;2024-02-15T13:49:49;99912.63;;;15.47;53.44
76594;BME280;65482;50.240;14.302;2024-02-15T13:55:38;99910.81;;;15.48;54.15
76594;BME280;65482;50.240;14.302;2024-02-15T13:58:26;99905.56;;;15.55;53.35
76594;BME280;65482;50.240;14.302;2024-02-15T14:20:33;99901.44;;;15.97;51.76
76594;BME280;65482;50.240;14.302;2024-02-15T14:23:16;99903.53;;;16.01;51.48
76594;BME280;65482;50.240;14.302;2024-02-15T14:33:00;99900.34;;;15.91;51.00
76594;BME280;65482;50.240;14.302;2024-02-15T14:49:28;99898.41;;;15.55;50.12
76594;BME280;65482;50.240;14.302;2024-02-15T14:52:37;99898.59;;;15.54;51.04
76594;BME280;65482;50.240;14.302;2024-02-15T15:29:27;99889.78;;;14.08;55.02
76594;BME280;65482;50.240;14.302;2024-02-15T15:31:59;99890.84;;;13.99;55.41
76594;BME280;65482;50.240;14.302;2024-02-15T15:34:29;99891.34;;;13.94;55.86
76594;BME280;65482;50.240;14.302;2024-02-15T15:37:20;99887.06;;;13.93;55.71
76594;BME280;65482;50.240;14.302;2024-02-15T15:40:09;99888.03;;;13.92;56.04
76594;BME280;65482;50.240;14.302;2024-02-15T15:42:58;99892.16;;;13.95;55.32
76594;BME280;65482;50.240;14.302;2024-02-15T15:46:06;99884.56;;;13.91;55.59
76594;BME280;65482;50.240;14.302;2024-02-15T15:48:44;99879.28;;;13.91;55.58
76594;BME280;65482;50.240;14.302;2024-02-15T16:18:34;99891.91;;;12.92;57.75
76594;BME280;65482;50.240;14.302;2024-02-15T16:21:08;99898.69;;;12.87;58.35
76594;BME280;65482;50.240;14.302;2024-02-15T16:23:35;99897.38;;;12.83;58.53
76594;BME280;65482;50.240;14.302;2024-02-15T16:26:02;99896.41;;;12.76;58.71
76594;BME280;65482;50.240;14.302;2024-02-15T16:28:28;99902.66;;;12.74;59.20
76594;BME280;65482;50.240;14.302;2024-02-15T16:30:59;99896.22;;;12.69;59.64
76594;BME280;65482;50.240;14.302;2024-02-15T16:33:25;99901.34;;;12.70;59.91
76594;BME280;65482;50.240;14.302;2024-02-15T16:35:52;99897.38;;;12.66;60.74
76594;BME280;65482;50.240;14.302;2024-02-15T16:38:39;99886.94;;;12.65;60.69
76594;BME280;65482;50.240;14.302;2024-02-15T16:41:07;99892.22;;;12.57;62.63
76594;BME280;65482;50.240;14.302;2024-02-15T16:43:52;99893.41;;;12.54;63.83
76594;BME280;65482;50.240;14.302;2024-02-15T16:46:42;99895.53;;;12.42;65.09
76594;BME280;65482;50.240;14.302;2024-02-15T16:49:26;99890.91;;;12.36;65.73
76594;BME280;65482;50.240;14.302;2024-02-15T16:51:58;99892.53;;;12.29;66.54
76594;BME280;65482;50.240;14.302;2024-02-15T16:54:25;99894.63;;;12.17;67.50
76594;BME280;65482;50.240;14.302;2024-02-15T16:57:00;99898.75;;;12.11;67.75
76594;BME280;65482;50.240;14.302;2024-02-15T16:59:30;99899.88;;;12.01;68.52
76594;BME280;65482;50.240;14.302;2024-02-15T17:02:09;99896.69;;;11.89;69.01
76594;BME280;65482;50.240;14.302;2024-02-15T17:04:37;99893.97;;;11.72;70.02
76594;BME280;65482;50.240;14.302;2024-02-15T17:07:08;99902.47;;;11.50;70.39
76594;BME280;65482;50.240;14.302;2024-02-15T17:09:38;99895.97;;;11.44;70.66
76594;BME280;65482;50.240;14.302;2024-02-15T17:12:09;99888.94;;;11.27;70.72
76594;BME280;65482;50.240;14.302;2024-02-15T17:14:38;99900.06;;;11.12;71.96
76594;BME280;65482;50.240;14.302;2024-02-15T17:29:16;99913.16;;;10.60;74.35
76594;BME280;65482;50.240;14.302;2024-02-15T17:31:58;99915.72;;;10.52;75.38
76594;BME280;65482;50.240;14.302;2024-02-15T17:34:28;99915.91;;;10.50;75.88
76594;BME280;65482;50.240;14.302;2024-02-15T17:37:22;99917.47;;;10.43;75.78
76594;BME280;65482;50.240;14.302;2024-02-15T17:40:00;99923.34;;;10.37;76.08
76594;BME280;65482;50.240;14.302;2024-02-15T17:42:30;99923.94;;;10.31;76.30
76594;BME280;65482;50.240;14.302;2024-02-15T17:45:03;99935.19;;;10.23;76.99
76594;BME280;65482;50.240;14.302;2024-02-15T17:47:42;99926.06;;;10.18;77.41
76594;BME280;65482;50.240;14.302;2024-02-15T17:50:27;99922.50;;;10.09;77.72
76594;BME280;65482;50.240;14.302;2024-02-15T17:53:05;99917.28;;;9.99;77.84
76594;BME280;65482;50.240;14.302;2024-02-15T18:05:02;99920.88;;;9.70;78.74
76594;BME280;65482;50.240;14.302;2024-02-15T18:07:37;99920.19;;;9.68;78.97
76594;BME280;65482;50.240;14.302;2024-02-15T18:10:49;99908.59;;;9.61;79.03
76594;BME280;65482;50.240;14.302;2024-02-15T18:13:33;99906.91;;;9.60;79.62
76594;BME280;65482;50.240;14.302;2024-02-15T18:16:25;99915.53;;;9.52;79.52
76594;BME280;65482;50.240;14.302;2024-02-15T18:18:59;99916.91;;;9.47;79.63
76594;BME280;65482;50.240;14.302;2024-02-15T18:21:32;99913.91;;;9.42;79.56
76594;BME280;65482;50.240;14.302;2024-02-15T18:24:41;99911.16;;;9.33;79.82
76594;BME280;65482;50.240;14.302;2024-02-15T18:27:10;99911.88;;;9.26;80.04
76594;BME280;65482;50.240;14.302;2024-02-15T18:29:57;99907.88;;;9.22;80.48
76594;BME280;65482;50.240;14.302;2024-02-15T18:32:47;99912.03;;;9.14;80.84
76594;BME280;65482;50.240;14.302;2024-02-15T18:35:24;99912.44;;;9.10;81.36
76594;BME280;65482;50.240;14.302;2024-02-15T19:28:00;99894.94;;;8.11;82.00
76594;BME280;65482;50.240;14.302;2024-02-15T19:33:41;99901.16;;;8.01;82.01
76594;BME280;65482;50.240;14.302;2024-02-15T19:45:18;99893.78;;;7.85;82.91
76594;BME280;65482;50.240;14.302;2024-02-15T19:47:50;99895.16;;;7.79;83.61
76594;BME280;65482;50.240;14.302;2024-02-15T19:50:35;99899.03;;;7.85;85.13
76594;BME280;65482;50.240;14.302;2024-02-15T19:53:34;99893.34;;;7.80;85.30
76594;BME280;65482;50.240;14.302;2024-02-15T19:56:22;99890.00;;;7.77;85.86
76594;BME280;65482;50.240;14.302;2024-02-15T19:59:23;99893.06;;;7.73;86.45
76594;BME280;65482;50.240;14.302;2024-02-15T20:15:24;99893.50;;;7.78;85.75
76594;BME280;65482;50.240;14.302;2024-02-15T20:18:00;99886.84;;;7.74;86.06
76594;BME280;65482;50.240;14.302;2024-02-15T20:20:30;99883.53;;;7.72;86.41
76594;BME280;65482;50.240;14.302;2024-02-15T20:26:46;99902.72;;;7.72;86.83
76594;BME280;65482;50.240;14.302;2024-02-15T20:32:57;99897.34;;;7.84;86.67
76594;BME280;65482;50.240;14.302;2024-02-15T20:35:44;99903.09;;;7.99;85.76
76594;BME280;65482;50.240;14.302;2024-02-15T20:38:17;99895.19;;;7.89;85.91
76594;BME280;65482;50.240;14.302;2024-02-15T20:40:55;99890.47;;;7.83;86.11
76594;BME280;65482;50.240;14.302;2024-02-15T20:43:34;99882.72;;;7.81;86.22
76594;BME280;65482;50.240;14.302;2024-02-15T20:46:02;99879.09;;;7.72;86.50
76594;BME280;65482;50.240;14.302;2024-02-15T20:48:36;99884.50;;;7.81;86.36
76594;BME280;65482;50.240;14.302;2024-02-15T20:51:10;99885.94;;;7.94;85.41
76594;BME280;65482;50.240;14.302;2024-02-15T20:53:46;99883.03;;;7.88;85.03
76594;BME280;65482;50.240;14.302;2024-02-15T20:56:25;99891.13;;;7.75;85.67
76594;BME280;65482;50.240;14.302;2024-02-15T20:59:30;99882.25;;;7.66;85.13
76594;BME280;65482;50.240;14.302;2024-02-15T21:06:59;99900.69;;;7.86;84.67
76594;BME280;65482;50.240;14.302;2024-02-15T21:09:38;99895.44;;;7.86;84.96
76594;BME280;65482;50.240;14.302;2024-02-15T21:12:10;99892.38;;;7.81;84.46
76594;BME280;65482;50.240;14.302;2024-02-15T21:14:44;99898.59;;;7.80;84.84
76594;BME280;65482;50.240;14.302;2024-02-15T21:17:13;99905.34;;;7.72;85.28
76594;BME280;65482;50.240;14.302;2024-02-15T21:20:12;99906.22;;;7.83;84.66
76594;BME280;65482;50.240;14.302;2024-02-15T21:22:43;99901.91;;;7.82;84.47
76594;BME280;65482;50.240;14.302;2024-02-15T21:25:19;99896.25;;;7.76;84.91
76594;BME280;65482;50.240;14.302;2024-02-15T21:30:40;99894.28;;;7.69;84.28
76594;BME280;65482;50.240;14.302;2024-02-15T21:33:08;99886.13;;;7.62;84.70
76594;BME280;65482;50.240;14.302;2024-02-15T21:35:58;99896.56;;;7.52;84.87
76594;BME280;65482;50.240;14.302;2024-02-15T21:38:27;99888.41;;;7.55;84.98
76594;BME280;65482;50.240;14.302;2024-02-15T21:41:02;99888.28;;;7.57;85.43
76594;BME280;65482;50.240;14.302;2024-02-15T21:43:33;99882.88;;;7.49;84.90
76594;BME280;65482;50.240;14.302;2024-02-15T21:46:02;99882.88;;;7.49;84.78
76594;BME280;65482;50.240;14.302;2024-02-15T21:48:34;99886.06;;;7.52;84.90
76594;BME280;65482;50.240;14.302;2024-02-15T21:51:09;99882.28;;;7.45;84.39
76594;BME280;65482;50.240;14.302;2024-02-15T21:53:35;99880.59;;;7.34;84.45
76594;BME280;65482;50.240;14.302;2024-02-15T21:56:09;99877.81;;;7.36;84.52
76594;BME280;65482;50.240;14.302;2024-02-15T21:58:35;99873.28;;;7.38;84.85
76594;BME280;65482;50.240;14.302;2024-02-15T22:01:07;99876.63;;;7.40;84.60
76594;BME280;65482;50.240;14.302;2024-02-15T22:03:36;99877.44;;;7.41;84.07
76594;BME280;65482;50.240;14.302;2024-02-15T22:06:06;99870.47;;;7.30;83.67
76594;BME280;65482;50.240;14.302;2024-02-15T22:08:39;99876.94;;;7.26;83.44
76594;BME280;65482;50.240;14.302;2024-02-15T22:11:18;99881.31;;;7.15;83.82
76594;BME280;65482;50.240;14.302;2024-02-15T22:13:45;99882.41;;;7.13;84.22
76594;BME280;65482;50.240;14.302;2024-02-15T22:16:19;99882.28;;;7.14;84.03
76594;BME280;65482;50.240;14.302;2024-02-15T22:18:45;99879.38;;;7.17;84.04
76594;BME280;65482;50.240;14.302;2024-02-15T22:21:15;99875.81;;;7.19;83.78
76594;BME280;65482;50.240;14.302;2024-02-15T22:23:46;99875.13;;;7.16;83.57
76594;BME280;65482;50.240;14.302;2024-02-15T22:26:15;99870.41;;;7.20;83.96
76594;BME280;65482;50.240;14.302;2024-02-15T22:28:45;99869.03;;;7.16;84.09
76594;BME280;65482;50.240;14.302;2024-02-15T22:31:18;99883.28;;;7.23;83.90
76594;BME280;65482;50.240;14.302;2024-02-15T22:33:50;99892.00;;;7.24;83.54
76594;BME280;65482;50.240;14.302;2024-02-15T22:36:25;99889.53;;;7.22;83.33
76594;BME280;65482;50.240;14.302;2024-02-15T22:38:52;99884.28;;;7.22;83.60
76594;BME280;65482;50.240;14.302;2024-02-15T22:41:23;99881.44;;;7.14;83.48
76594;BME280;65482;50.240;14.302;2024-02-15T22:43:58;99877.75;;;7.16;83.74